Nearby METAR Reports

 

KPMD - Palmdale, California, USA
Distance from station: NNE 12mi, 19km
Updated: Wed, 20-Jun-2018 11:53am PDT
Clear
Clear
 Wind from varies
Wind: varies 3 mph , 6 km/h
Temperature: 93°F , 34°C
Dew Point: 41°F , 5°C
Humidity: 16%
Barometer: 29.98 inHg , 1015.2 hPa
Clouds: Clear
Visibility: 10 miles , 16 km
2018/06/20 18:53 KPMD 201853Z VRB03KT 10SM CLR 34/05 A2998 RMK AO2 SLP121 T03440050
KWJF - Lancaster/Fox, California, USA
Distance from station: N 17mi, 27km
Updated: Wed, 20-Jun-2018 11:56am PDT
Clear
Clear
 Wind from varies
Wind: varies 3 mph , 6 km/h
Temperature: 95°F , 35°C
Dew Point: 39°F , 4°C
Humidity: 14%
Barometer: 29.96 inHg , 1014.6 hPa
Clouds: Clear
Visibility: 10 miles , 16 km
2018/06/20 18:56 KWJF 201856Z VRB03KT 10SM CLR 35/04 A2996 RMK AO2 SLP122 T03500044
 
KMWS - Mount Wilson, California, USA
Distance from station: SSE 18mi, 30km
Updated: Wed, 13-May-2015 6:45am PDT
NOT Current

 Wind from S
Wind: S 3 mph , 6 km/h, Gust: 5 mph , 7 km/h
Temperature: 43°F , 6°C
Dew Point: -0°F , -18°C
Humidity: 16%
2015/05/13 13:45 KMWS 131345Z 18003G04KT 06/M18 RMK SNOW DEPTH 1.00
KWHP - La / Whiteman, California, USA
Distance from station: SW 21mi, 34km
Updated: Wed, 20-Jun-2018 9:55am PDT
NOT Current
Clear
Clear
 Wind from calm
Wind: Calm
Temperature: 72°F , 22°C
Dew Point: 55°F , 13°C
Humidity: 57%
Barometer: 29.97 inHg , 1014.9 hPa
Clouds: Clear
Visibility: 10 miles , 16 km
2018/06/20 16:55 KWHP 201655Z 00000KT 10SM SKC 22/13 A2997
 
KBUR - Burbank, California, USA
Distance from station: SSW 22mi, 35km
Updated: Wed, 20-Jun-2018 11:53am PDT
Clear
Clear
 Wind from varies
Wind: varies 7 mph , 11 km/h
Temperature: 77°F , 25°C
Dew Point: 61°F , 16°C
Humidity: 57%
Barometer: 29.92 inHg , 1013.2 hPa
Clouds: Clear
Visibility: 9 miles , 14 km
2018/06/20 18:53 KBUR 201853Z VRB06KT 9SM CLR 25/16 A2992 RMK AO2 SLP121 T02500156 $
KVNY - Van Nuys, California, USA
Distance from station: SW 25mi, 40km
Updated: Wed, 20-Jun-2018 11:51am PDT
Clear
Clear
 Wind from varies
Wind: varies 7 mph , 11 km/h
Temperature: 82°F , 28°C
Heat Index: 82°F , 28°C
Dew Point: 59°F , 15°C
Humidity: 45%
Barometer: 29.92 inHg , 1013.2 hPa
Clouds: Clear
Visibility: 10 miles , 16 km
2018/06/20 18:51 KVNY 201851Z VRB06KT 10SM CLR 28/15 A2992 RMK AO2 SLP122 T02780150
 
KEDW - Edwards Afb, California, USA
Distance from station: NNE 33mi, 53km
Updated: Wed, 20-Jun-2018 11:58am PDT
Clear
Clear
 Wind from NNE
Wind: NNE 6 mph , 9 km/h
Temperature: 91°F , 33°C
Dew Point: 39°F , 4°C
Humidity: 16%
Barometer: 29.94 inHg , 1013.9 hPa
Clouds: Clear
Visibility: 50 miles , 80 km
2018/06/20 18:58 KEDW 201858Z 02005KT 50SM CLR 33/04 A2994 RMK AO2A SLP113 T03340041
KSMO - Santa Monica, California, USA
Distance from station: SSW 35mi, 57km
Updated: Wed, 20-Jun-2018 11:51am PDT
Haze, Clear
Haze, Clear
 Wind from varies
Wind: varies 7 mph , 11 km/h
Temperature: 68°F , 20°C
Dew Point: 57°F , 14°C
Humidity: 69%
Barometer: 29.94 inHg , 1013.9 hPa
Summary: Haze
Clouds: Clear
Visibility: 6 miles , 10 km
2018/06/20 18:51 KSMO 201851Z VRB06KT 6SM HZ CLR 20/14 A2994 RMK AO2 SLP138 T02000144 $
 
KLAX - Los Angeles, California, USA
Distance from station: SSW 39mi, 63km
Updated: Wed, 20-Jun-2018 11:53am PDT
Haze, Partly cloudy
Haze, Partly cloudy
 Wind from W
Wind: W 9 mph , 15 km/h
Temperature: 72°F , 22°C
Dew Point: 61°F , 16°C
Humidity: 69%
Barometer: 29.94 inHg , 1013.9 hPa
Summary: Haze
Clouds: Partly cloudy
Visibility: 6 miles , 10 km
Cloud details: Partly cloudy 1800 ft
2018/06/20 18:53 KLAX 201853Z 26008KT 6SM HZ SCT018 22/16 A2994 RMK AO2 SLP137 T02170156
KMHV - Mojave, California, USA
Distance from station: N 41mi, 66km
Updated: Wed, 20-Jun-2018 11:40am PDT
Clear
Clear
 Wind from SE
Wind: SE 6 mph , 9 km/h
Temperature: 91°F , 33°C
Dew Point: 39°F , 4°C
Humidity: 16%
Barometer: 30.00 inHg , 1015.9 hPa
Clouds: Clear
Visibility: 10 miles , 16 km
2018/06/20 18:40 KMHV 201840Z AUTO 14005KT 10SM CLR 33/04 A3000 RMK A01
 
KFUL - Fullerton, California, USA
Distance from station: SSE 44mi, 70km
Updated: Wed, 20-Jun-2018 11:53am PDT
Clear
Clear
 
Temperature: 73°F , 23°C
Dew Point: 61°F , 16°C
Humidity: 65%
Barometer: 29.92 inHg , 1013.2 hPa
Clouds: Clear
Visibility: 10 miles , 16 km
2018/06/20 18:53 KFUL 201853Z 10SM CLR 23/16 A2992 RMK AO2 SLP132 T02330156
KONT - Ontario, California, USA
Distance from station: SE 45mi, 72km
Updated: Wed, 20-Jun-2018 11:53am PDT
Clear
Clear
 Wind from W
Wind: W 8 mph , 13 km/h
Temperature: 81°F , 27°C
Heat Index: 81°F , 27°C
Dew Point: 57°F , 14°C
Humidity: 45%
Barometer: 29.92 inHg , 1013.2 hPa
Clouds: Clear
Visibility: 8 miles , 13 km
2018/06/20 18:53 KONT 201853Z 27007KT 220V280 8SM CLR 27/14 A2992 RMK AO2 SLP120 T02670144
 
KLGB - Long Beach, California, USA
Distance from station: S 46mi, 74km
Updated: Wed, 20-Jun-2018 11:53am PDT
Mostly cloudy
Mostly cloudy
 Wind from varies
Wind: varies 7 mph , 11 km/h
Temperature: 68°F , 20°C
Dew Point: 59°F , 15°C
Humidity: 73%
Barometer: 29.94 inHg , 1013.9 hPa
Clouds: Mostly cloudy
Visibility: 10 miles , 16 km
Cloud details: Mostly cloudy 1400 ft
2018/06/20 18:53 KLGB 201853Z VRB06KT 10SM BKN014 20/15 A2994 RMK AO2 SLP138 T02000150
KVCV - Victorville, California, USA
Distance from station: E 46mi, 74km
Updated: Wed, 20-Jun-2018 11:47am PDT
Clear
Clear
 Wind from calm
Wind: Calm
Barometer: 30.00 inHg , 1015.9 hPa
Clouds: Clear
Visibility: 10 miles , 16 km
2018/06/20 18:47 KVCV 201847Z 00000KT 10SM SKC A3000
 
KTSP - Tehachapi, California, USA
Distance from station: NNW 48mi, 77km
Updated: Wed, 20-Jun-2018 11:55am PDT
Clear
Clear
 Wind from NW
Wind: NW 20 mph , 31 km/h
Temperature: 86°F , 30°C
Dew Point: 46°F , 8°C
Humidity: 25%
Barometer: 30.09 inHg , 1019 hPa
Clouds: Clear
Visibility: 9 miles , 14 km
2018/06/20 18:55 KTSP 201855Z AUTO 32017KT 9SM CLR 30/08 A3009 RMK AO2